KSKA

Fairchild AFB Airport

Spokane, Washington, USA
METAR KSKA 201158Z 19010KT 10SM FEW042 BKN060 OVC085 00/00 A2993 RMK AO2A SLP158 T00010001 10005 21005 52006 $
Observed Flight Rules
Jan-20 @ 11:58 UTC (an hour ago) Visual Flight Rules
Wind Visibility Clouds
190° at 10 knots 10 miles
  • Few at 4,200' AGL
  • Broken at 6,000' AGL
  • Overcast at 8,500' AGL
Temperatures Readings
Current 0°C / 32°F
Dewpoint 0°C / 32°F
Humidity 100%
Altimeter 29.93" Hg
Pressure 1015.8 hPa
Elevation 750
METAR KSKA 201158Z 19010KT 10SM FEW042 BKN060 OVC085 00/00 A2993 RMK AO2A SLP158 T00010001 10005 21005 52006 $
Observed Flight Rules
Jan-20 @ 11:58 UTC
(an hour ago)
VFR
Wind Visibility
190° at 10 knots 10 miles
Clouds
  • Few at 4,200' AGL
  • Broken at 6,000' AGL
  • Overcast at 8,500' AGL
Temperature Dewpoint
0°C / 32°F 0°C / 32°F
Humidity Altimeter Pressure
100% 29.93" Hg 1015.8 hPa